Hoskins, NE (68740)

7:34 AM CDT on July 28, 2014 (GMT -0500)
Hogendorn Hill (KNEPIERC2) Elev 1680 ft | 42.19 °N, 97.46 °W | Change Station

Current weather conditions updated 4 minutes ago

Clear
Clear
59.4 °F
Feels Like 59.4 °F
N
3.8
Wind Variable Wind from SW
Gusts 4.5 mph

Today is forecast to be Much Warmer than yesterday.

Today
High -- | Low -- °F
--% Chance of Precip.
Yesterday
High -- | Low -- °F
Precip. -- in
6:18 AM 8:52 PM
New Moon, 2% visible
Pressure 30.26 in
Visibility 10.0 miles
Clouds Clear
Dew Point 58 °F
Humidity 97%
Rainfall 0.00 in
Snow Depth Not available.
UV 0 out of 12
Pollen 6.40 out of 12
Air Quality Not available.
Flu Activity Not available.
METAR KOFK 281156Z AUTO 31003KT 10SM CLR 13/12 A3028 RMK AO2 SLP246 T01330117 10156 20122 53007

More Conditions Fewer Conditions

Pressure 30.26 in
Visibility 10.0 miles
Clouds Clear
Dew Point 58 °F
Humidity 97%
Rainfall 0.00 in
Snow Depth Not available.
UV 0 out of 12
Pollen 6.40 out of 12
Air Quality Not available.
Flu Activity Not available.
METAR KOFK 281156Z AUTO 31003KT 10SM CLR 13/12 A3028 RMK AO2 SLP246 T01330117 10156 20122 53007

More Conditions Fewer Conditions

10-Day Weather Forecast

Almanac

Astronomy

Jul. 28, 2014 Rise Set
Actual Time 6:18 AM CDT 8:52 PM CDT
Civil Twilight 5:46 AM CDT 9:24 PM CDT
Nautical Twilight 5:06 AM CDT 10:04 PM CDT
Astronomical Twilight 4:20 AM CDT 10:49 PM CDT
Moon 8:03 AM CDT 9:31 PM CDT
Length of Visible Light 15h 38m
Length of Day
14h 34m
Tomorrow will be 2m 2s shorter.
New Moon, 2% of the Moon is Illuminated
Today
New Moon
Aug 3
First Quarter
Aug 10
Full
Aug 17
Last Quarter
Aug 25
New

Today's Extremes

State Highs State Lows

Community

WunderPhotos

Upload Photos

1,738,311 photos uploaded!

Nearby

Snow Depth

Station Depth Elevation
No new snow has been reported.

Earthquake Activity

City Distance Mag. Time & Date
No recent earthquake activity has been reported nearby.
Minimum magnitude displayed is 2.5.

Coastal Water Temperatures

Place Temperature
No Stations Reporting

Nearby Weather Stations

Station Location Temp. Dew Point Humidity Wind Precip. Elev Updated Type
Hogendorn Hill, Pierce, NE 59.4 °F 58 °F 97% SW  at  3.8 mph 0.00 in / hr 1680 ft 7:30 AM CDT Normal
Woodland Park, Norfolk, NE 54.9 °F 53 °F 95% NW  at  1.1 mph 0.00 in / hr 1700 ft 7:34 AM CDT Rapid Fire
West Central - Norfolk, Norfolk, NE 57.2 °F 53 °F 85% East  at  0.0 mph 0.00 in / hr 1640 ft 7:30 AM CDT Normal
Courthouse Hill, Wayne, NE 57.6 °F 57 °F 99% WNW  at  4.0 mph 0.00 in / hr 1512 ft 7:33 AM CDT Rapid Fire
1 mile South of Wayne, Wayne, NE 58.5 °F 57 °F 96% West  at  10.5 mph 0.00 in / hr 1463 ft 7:32 AM CDT Rapid Fire

Show More Stations Show Fewer Stations